Time;durP1;ratioP1;P1;durP2;ratioP2;P2;SDS_P1;SDS_P2;PMS_P1;PMS_P2;Temp;Humidity;BMP_temperature;BMP_pressure;BME280_temperature;BME280_humidity;BME280_pressure;Samples;Min_cycle;Max_cycle;Signal;HPM_P1;HPM_P2
2021/08/01 00:01:20;;;;;;;10.25;6.33;;;;;;;22.46;54.97;97782.36;129416;1096;114482;-83
2021/08/01 00:03:46;;;;;;;10.28;5.58;;;;;;;22.47;55.06;97785.88;129411;1096;114272;-83
2021/08/01 00:06:12;;;;;;;9.03;5.43;;;;;;;22.47;55.27;97783.14;129423;1096;114267;-83
2021/08/01 00:08:39;;;;;;;7.85;5.33;;;;;;;22.48;55.08;97781.98;129403;1096;114502;-83
2021/08/01 00:11:06;;;;;;;8.75;5.53;;;;;;;22.48;55.47;97781.98;129521;1096;22504;-83
2021/08/01 00:13:32;;;;;;;9.30;5.98;;;;;;;22.47;55.48;97767.45;129470;1096;113674;-83
2021/08/01 00:15:59;;;;;;;9.73;5.95;;;;;;;22.46;55.52;97763.16;129411;1096;114100;-83
2021/08/01 00:18:25;;;;;;;8.43;5.58;;;;;;;22.47;55.18;97767.45;129484;1096;114114;-83
2021/08/01 00:20:51;;;;;;;8.83;5.25;;;;;;;22.47;54.92;97769.42;129427;1096;114139;-83
2021/08/01 00:23:17;;;;;;;9.48;5.43;;;;;;;22.48;54.88;97769.03;129426;1096;114196;-83
2021/08/01 00:25:43;;;;;;;8.43;6.00;;;;;;;22.49;54.61;97773.33;129514;1096;23387;-82
2021/08/01 00:28:09;;;;;;;10.98;5.85;;;;;;;22.51;54.83;97765.46;129492;1096;113800;-83
2021/08/01 00:30:35;;;;;;;8.58;5.65;;;;;;;22.53;55.02;97765.86;129390;1097;114205;-83
2021/08/01 00:33:00;;;;;;;9.08;5.68;;;;;;;;;;129418;1095;114291;-83
2021/08/01 00:35:27;;;;;;;11.28;6.23;;;;;;;22.58;55.02;97783.07;129512;1095;87169;-83
2021/08/01 00:37:53;;;;;;;8.05;5.20;;;;;;;22.59;55.33;97779.13;129540;1096;22563;-83
2021/08/01 00:40:22;;;;;;;11.93;6.10;;;;;;;22.59;55.41;97768.16;129532;1095;113758;-83
2021/08/01 00:42:50;;;;;;;9.88;5.78;;;;;;;22.56;55.26;97758.79;129514;1095;114117;-83
2021/08/01 00:45:16;;;;;;;8.63;5.93;;;;;;;22.57;55.10;97740.36;129372;1097;113936;-83
2021/08/01 00:47:43;;;;;;;8.60;5.40;;;;;;;22.58;55.34;97748.17;129435;1096;114486;-83
2021/08/01 00:50:11;;;;;;;10.90;5.68;;;;;;;22.59;55.27;97752.47;129548;1096;22563;-83
2021/08/01 00:52:38;;;;;;;8.28;5.00;;;;;;;22.62;55.24;97751.67;129419;1097;112687;-83
2021/08/01 00:55:05;;;;;;;9.48;5.33;;;;;;;22.65;55.17;97767.33;129423;1097;114118;-83
2021/08/01 00:57:31;;;;;;;8.98;4.88;;;;;;;22.68;54.91;97768.50;129516;1096;113924;-83
2021/08/01 00:59:58;;;;;;;8.80;4.90;;;;;;;22.70;55.07;97802.56;129449;1096;114021;-83
2021/08/01 01:02:36;;;;;;;9.85;5.58;;;;;;;22.70;55.59;97843.73;129513;1096;114182;-83
2021/08/01 01:05:14;;;;;;;9.75;5.70;;;;;;;22.65;55.49;97866.13;129524;1097;22536;-83
2021/08/01 01:07:49;;;;;;;9.15;5.73;;;;;;;22.59;55.19;97883.41;129442;1096;113712;-83
2021/08/01 01:10:24;;;;;;;9.90;6.13;;;;;;;22.53;55.30;97891.29;129464;1096;113896;-83
2021/08/01 01:12:56;;;;;;;10.20;6.00;;;;;;;22.51;55.53;97913.63;129393;1096;114084;-83
2021/08/01 01:15:24;;;;;;;8.58;5.53;;;;;;;22.50;55.57;97925.01;129492;1095;114304;-83
2021/08/01 01:17:53;;;;;;;9.23;5.78;;;;;;;22.50;55.58;97922.27;129435;1096;114252;-83
2021/08/01 01:20:51;;;;;;;8.55;6.00;;;;;;;22.51;55.43;97921.08;129392;1096;114049;-83
2021/08/01 01:23:38;;;;;;;11.30;6.13;;;;;;;22.49;56.38;97953.63;129406;1096;114831;-82
2021/08/01 01:26:29;;;;;;;10.60;7.23;;;;;;;22.45;57.24;97961.88;129642;1096;22528;-83
2021/08/01 01:29:25;;;;;;;12.33;6.40;;;;;;;22.45;58.77;97950.13;129526;1096;22523;-83
2021/08/01 01:31:57;;;;;;;11.65;6.78;;;;;;;22.45;59.22;97945.41;129511;1096;22998;-83
2021/08/01 01:34:29;;;;;;;12.50;7.05;;;;;;;22.49;60.07;97940.69;129487;1096;114486;-84
2021/08/01 01:36:59;;;;;;;11.58;6.83;;;;;;;22.49;60.70;97920.70;129522;1095;114310;-85
2021/08/01 01:39:27;;;;;;;14.53;7.33;;;;;;;22.48;61.13;97906.21;129431;1096;114128;-85
2021/08/01 01:41:55;;;;;;;14.43;7.95;;;;;;;22.46;61.53;97889.36;129424;1097;114972;-84
2021/08/01 01:44:22;;;;;;;12.53;7.85;;;;;;;22.43;62.03;97887.41;129410;1095;114152;-84
2021/08/01 01:46:49;;;;;;;14.35;8.38;;;;;;;22.41;62.22;97878.03;129521;1096;23015;-83
2021/08/01 01:49:16;;;;;;;16.43;8.40;;;;;;;22.37;62.68;97880.80;129461;1096;114047;-83
2021/08/01 01:51:43;;;;;;;14.50;8.10;;;;;;;22.34;63.05;97883.55;129416;1096;114232;-83
2021/08/01 01:54:11;;;;;;;16.68;8.58;;;;;;;22.32;63.34;97881.19;129485;1096;114065;-83
2021/08/01 01:56:39;;;;;;;12.48;8.00;;;;;;;22.32;63.29;97883.93;129427;1096;114232;-84
2021/08/01 01:59:05;;;;;;;14.88;8.30;;;;;;;22.33;63.67;97880.03;129594;1095;22527;-83
2021/08/01 02:01:32;;;;;;;16.05;9.18;;;;;;;22.29;64.00;97874.55;129416;1096;114694;-83
2021/08/01 02:03:58;;;;;;;18.03;8.90;;;;;;;22.26;63.89;97849.89;129415;1096;114279;-83
2021/08/01 02:06:24;;;;;;;16.93;9.68;;;;;;;22.22;64.04;97849.13;129466;1096;114094;-83
2021/08/01 02:09:05;;;;;;;15.30;9.68;;;;;;;22.19;64.19;97839.73;129383;1096;114943;-83
2021/08/01 02:11:46;;;;;;;16.03;9.40;;;;;;;22.15;64.17;97832.70;129434;1096;114203;-83
2021/08/01 02:14:18;;;;;;;14.80;9.60;;;;;;;22.09;64.27;97804.90;129498;1095;22541;-83
2021/08/01 02:16:48;;;;;;;15.60;10.18;;;;;;;22.04;64.53;97786.88;129546;1097;22529;-83
2021/08/01 02:19:14;;;;;;;15.25;9.40;;;;;;;22.02;64.73;97778.30;129431;1097;114421;-83
2021/08/01 02:21:42;;;;;;;14.68;9.70;;;;;;;22.02;65.18;97775.55;129448;1097;114139;-83
2021/08/01 02:24:09;;;;;;;13.93;10.08;;;;;;;22.02;65.14;97761.84;129406;1097;114096;-83
2021/08/01 02:26:40;;;;;;;14.03;10.18;;;;;;;22.02;65.21;97755.58;129477;1096;114418;-83
2021/08/01 02:29:08;;;;;;;14.93;9.13;;;;;;;21.98;65.24;97752.86;129557;1096;23005;-83
2021/08/01 02:31:34;;;;;;;13.90;9.40;;;;;;;21.95;65.04;97759.13;129384;1097;113832;-83
2021/08/01 02:34:07;;;;;;;12.13;8.78;;;;;;;21.93;65.13;97756.03;129485;1097;114290;-83
2021/08/01 02:36:36;;;;;;;13.83;9.10;;;;;;;21.89;65.11;97729.80;129435;1096;114280;-83
2021/08/01 02:39:02;;;;;;;15.73;9.03;;;;;;;21.86;64.97;97722.39;129456;1097;114330;-83
2021/08/01 02:41:31;;;;;;;14.15;8.55;;;;;;;21.83;65.29;97729.44;129407;1096;114634;-83
2021/08/01 02:44:02;;;;;;;10.68;7.50;;;;;;;21.79;65.59;97732.20;129547;1096;22528;-83
2021/08/01 02:46:30;;;;;;;11.93;7.83;;;;;;;21.78;65.67;97719.69;129470;1095;114215;-83
2021/08/01 02:49:00;;;;;;;11.23;7.50;;;;;;;21.80;65.76;97719.27;129437;1097;114315;-83
2021/08/01 02:51:29;;;;;;;12.70;8.00;;;;;;;21.81;65.60;97715.34;129408;1097;114272;-83
2021/08/01 02:53:56;;;;;;;14.70;8.08;;;;;;;21.81;65.78;97701.64;129404;1096;114246;-83
2021/08/01 02:56:26;;;;;;;10.23;7.35;;;;;;;21.81;65.43;97687.94;129489;1096;114277;-83
2021/08/01 02:59:03;;;;;;;10.53;7.40;;;;;;;21.77;65.59;97689.92;129575;1096;22532;-83
2021/08/01 03:01:31;;;;;;;16.18;9.05;;;;;;;21.73;65.33;97691.91;129509;1096;114211;-83
2021/08/01 03:03:59;;;;;;;13.65;8.63;;;;;;;21.69;65.49;97680.19;129409;1097;114233;-83
2021/08/01 03:06:32;;;;;;;13.18;8.20;;;;;;;21.63;65.53;97676.31;129480;1097;114593;-84
2021/08/01 03:09:03;;;;;;;14.08;7.98;;;;;;;21.58;65.71;97683.00;129425;1095;114268;-83
2021/08/01 03:11:34;;;;;;;12.50;8.13;;;;;;;21.56;65.98;97669.68;129208;1097;114366;-83
2021/08/01 03:14:09;;;;;;;13.20;7.38;;;;;;;21.55;66.21;97678.31;129560;1096;23348;-83
2021/08/01 03:16:34;;;;;;;13.68;8.23;;;;;;;21.51;66.32;97680.28;129484;1096;113714;-83
2021/08/01 03:19:00;;;;;;;12.28;7.75;;;;;;;21.47;66.45;97690.48;129442;1096;113577;-83
2021/08/01 03:21:27;;;;;;;10.95;7.75;;;;;;;21.42;66.39;97686.20;129449;1097;114801;-83
2021/08/01 03:23:53;;;;;;;12.70;7.93;;;;;;;21.38;66.49;97698.33;129382;1096;114590;-83
2021/08/01 03:26:19;;;;;;;13.88;8.10;;;;;;;21.33;66.52;97702.26;129415;1096;114527;-83
2021/08/01 03:28:45;;;;;;;11.28;7.43;;;;;;;21.29;66.65;97717.89;129483;1096;22530;-83
2021/08/01 03:31:11;;;;;;;14.08;7.88;;;;;;;21.25;66.64;97728.85;129441;1097;113926;-83
2021/08/01 03:33:37;;;;;;;11.03;7.28;;;;;;;21.25;66.74;97731.59;129505;1096;114088;-84
2021/08/01 03:36:03;;;;;;;11.05;6.33;;;;;;;21.29;66.84;97723.37;129416;1096;114370;-84
2021/08/01 03:38:29;;;;;;;9.83;6.20;;;;;;;21.34;67.04;97728.48;129461;1096;114280;-84
2021/08/01 03:40:56;;;;;;;10.75;7.15;;;;;;;21.39;66.97;97694.43;129511;1096;23330;-84
2021/08/01 03:43:22;;;;;;;12.63;6.95;;;;;;;21.44;67.07;97680.31;129464;1095;113930;-84
2021/08/01 03:45:48;;;;;;;10.45;6.95;;;;;;;21.46;66.98;97673.27;129427;1097;114567;-84
2021/08/01 03:48:14;;;;;;;10.98;7.23;;;;;;;21.45;66.86;97701.04;129419;1097;114490;-84
2021/08/01 03:50:43;;;;;;;11.53;7.15;;;;;;;21.45;67.18;97733.91;129510;1096;114260;-83
2021/08/01 03:53:09;;;;;;;12.03;8.13;;;;;;;21.45;67.11;97766.78;129571;1096;22523;-83
2021/08/01 03:55:35;;;;;;;12.58;7.90;;;;;;;21.44;67.55;97787.13;129456;1097;113700;-83
2021/08/01 03:58:02;;;;;;;11.48;8.03;;;;;;;21.44;67.67;97776.95;129495;1096;114072;-83
2021/08/01 04:00:28;;;;;;;11.18;6.75;;;;;;;21.47;67.83;97775.39;129490;1096;114117;-83
2021/08/01 04:02:55;;;;;;;9.55;6.60;;;;;;;21.51;67.96;97784.38;129491;1095;114499;-83
2021/08/01 04:05:25;;;;;;;14.20;8.45;;;;;;;21.54;68.22;97772.64;129453;1097;114997;-81
2021/08/01 04:07:51;;;;;;;13.83;7.45;;;;;;;21.54;68.22;97728.80;129559;1097;22507;-83
2021/08/01 04:10:17;;;;;;;15.40;8.38;;;;;;;21.53;68.17;97741.70;129461;1096;113951;-82
2021/08/01 04:12:43;;;;;;;11.88;7.85;;;;;;;21.47;68.58;97765.22;129497;1096;114224;-83
2021/08/01 04:15:12;;;;;;;12.83;8.10;;;;;;;21.41;68.40;97689.32;129480;1096;114488;-83
2021/08/01 04:17:38;;;;;;;12.45;6.68;;;;;;;21.37;68.31;97692.07;129470;1096;114389;-83
2021/08/01 04:20:04;;;;;;;8.90;5.55;;;;;;;21.36;68.17;97684.27;129677;1095;22575;-85
2021/08/01 04:22:56;;;;;;;14.33;5.98;;;;;;;21.37;68.26;97666.65;129574;1096;113891;-87
2021/08/01 04:25:24;;;;;;;8.38;5.63;;;;;;;21.37;68.33;97645.52;129845;1096;112990;-86
2021/08/01 04:27:53;;;;;;;9.43;6.25;;;;;;;21.38;68.59;97652.58;129662;1096;112965;-84
2021/08/01 04:30:19;;;;;;;10.75;5.95;;;;;;;21.38;68.54;97644.36;129482;1096;113133;-86
2021/08/01 04:32:45;;;;;;;11.90;6.70;;;;;;;21.39;68.68;97623.22;129568;1096;114496;-88
2021/08/01 04:35:12;;;;;;;10.73;6.43;;;;;;;21.37;68.44;97609.91;129527;1096;22575;-85
2021/08/01 04:37:38;;;;;;;11.75;6.95;;;;;;;21.33;68.50;97598.20;129427;1097;113739;-86
2021/08/01 04:40:05;;;;;;;9.35;6.00;;;;;;;21.29;68.71;97591.94;129425;1096;114166;-88
2021/08/01 04:42:32;;;;;;;10.20;5.95;;;;;;;21.28;69.14;97591.16;129456;1096;115090;-86
2021/08/01 04:44:59;;;;;;;9.30;5.93;;;;;;;21.29;69.50;97589.97;129412;1096;114370;-86
2021/08/01 04:47:25;;;;;;;11.55;6.83;;;;;;;21.29;69.28;97587.23;129431;1096;114177;-85
2021/08/01 04:49:53;;;;;;;10.88;6.35;;;;;;;21.29;69.28;97592.70;129525;1096;22533;-86
2021/08/01 04:52:19;;;;;;;11.03;6.98;;;;;;;21.30;69.40;97615.42;129412;1096;114529;-86
2021/08/01 04:54:46;;;;;;;12.13;7.08;;;;;;;21.31;69.64;97633.41;129409;1097;114281;-85
2021/08/01 04:57:13;;;;;;;9.50;6.55;;;;;;;21.30;69.54;97637.33;129404;1097;114405;-85
2021/08/01 04:59:39;;;;;;;10.28;7.20;;;;;;;21.29;69.54;97639.26;129386;1096;114409;-85
2021/08/01 05:02:06;;;;;;;10.18;6.88;;;;;;;21.32;69.54;97654.93;129537;1096;23046;-85
2021/08/01 05:04:32;;;;;;;10.20;5.95;;;;;;;21.38;69.70;97644.36;129427;1096;114191;-86
2021/08/01 05:06:59;;;;;;;12.33;6.85;;;;;;;21.45;69.77;97640.78;129454;1097;114097;-87
2021/08/01 05:09:25;;;;;;;11.75;7.43;;;;;;;21.49;69.58;97647.80;129442;1096;114454;-87
2021/08/01 05:11:51;;;;;;;12.50;7.18;;;;;;;21.53;69.26;97645.05;129445;1096;114342;-87
2021/08/01 05:14:17;;;;;;;11.23;7.50;;;;;;;21.55;69.38;97631.74;129514;1096;23091;-87
2021/08/01 05:16:44;;;;;;;9.93;6.75;;;;;;;21.56;69.22;97625.85;129514;1096;22519;-85
2021/08/01 05:19:11;;;;;;;12.25;6.88;;;;;;;21.61;69.18;97638.34;129380;1096;113752;-84
2021/08/01 05:21:37;;;;;;;10.35;6.55;;;;;;;21.67;69.35;97623.05;129424;1097;114512;-85
2021/08/01 05:24:03;;;;;;;10.63;6.03;;;;;;;21.73;69.29;97593.26;129458;1096;114521;-85
2021/08/01 05:26:29;;;;;;;12.35;6.65;;;;;;;21.76;69.11;97574.05;129497;1096;114147;-85
2021/08/01 05:28:55;;;;;;;9.70;7.00;;;;;;;21.78;69.10;97573.67;129561;1096;22536;-84
2021/08/01 05:31:22;;;;;;;11.85;7.50;;;;;;;21.82;69.03;97596.34;129446;1096;113926;-84
2021/08/01 05:33:48;;;;;;;10.83;6.88;;;;;;;21.86;68.80;97582.62;129476;1096;114258;-83
2021/08/01 05:36:14;;;;;;;11.50;7.45;;;;;;;21.94;68.91;97581.38;129486;1097;114311;-85
2021/08/01 05:38:40;;;;;;;9.70;6.73;;;;;;;22.00;68.96;97582.48;129410;1096;114990;-84
2021/08/01 05:41:07;;;;;;;12.48;7.25;;;;;;;22.09;68.95;97588.30;129521;1097;22497;-86
2021/08/01 05:43:34;;;;;;;10.60;6.63;;;;;;;22.17;69.13;97594.53;129408;1096;114428;-85
2021/08/01 05:46:00;;;;;;;14.05;7.13;;;;;;;22.22;68.72;97588.60;129447;1097;114154;-83
2021/08/01 05:48:26;;;;;;;11.60;7.03;;;;;;;22.27;68.70;97588.16;129403;1096;114360;-83
2021/08/01 05:50:52;;;;;;;10.55;6.28;;;;;;;22.32;68.35;97586.94;129416;1096;114293;-83
2021/08/01 05:53:21;;;;;;;12.18;7.03;;;;;;;22.36;68.23;97580.25;129517;1096;114607;-83
2021/08/01 05:55:48;;;;;;;10.50;7.08;;;;;;;22.39;67.89;97570.41;129502;1097;22531;-83
2021/08/01 05:58:14;;;;;;;13.40;7.63;;;;;;;22.45;67.71;97558.60;129384;1096;114265;-81
2021/08/01 06:00:40;;;;;;;11.75;7.60;;;;;;;22.53;67.75;97562.82;129408;1097;114200;-82
2021/08/01 06:03:06;;;;;;;11.20;6.40;;;;;;;22.70;67.39;97571.27;129389;1097;114325;-82
2021/08/01 06:05:33;;;;;;;10.73;6.93;;;;;;;22.81;67.20;97573.89;129399;1096;116170;-82
2021/08/01 06:07:59;;;;;;;12.20;6.88;;;;;;;22.89;67.29;97583.60;129501;1096;22661;-82
2021/08/01 06:10:25;;;;;;;10.90;7.03;;;;;;;23.01;66.91;97586.61;129438;1096;114328;-82
2021/08/01 06:12:51;;;;;;;11.40;7.35;;;;;;;23.13;66.29;97593.52;129416;1096;114176;-82
2021/08/01 06:15:17;;;;;;;12.68;7.73;;;;;;;23.27;66.30;97587.08;129453;1096;114344;-82
2021/08/01 06:17:43;;;;;;;11.05;7.30;;;;;;;23.38;66.00;97576.70;129501;1095;114419;-82
2021/08/01 06:20:11;;;;;;;14.20;8.08;;;;;;;23.43;65.66;97565.27;129502;1096;23339;-82
2021/08/01 06:22:37;;;;;;;13.30;7.30;;;;;;;23.48;65.61;97562.05;129439;1096;113909;-82
2021/08/01 06:25:03;;;;;;;13.80;8.05;;;;;;;23.54;65.41;97556.88;129411;1095;114268;-82
2021/08/01 06:27:29;;;;;;;9.95;6.88;;;;;;;23.61;65.48;97533.98;129426;1096;114223;-82
2021/08/01 06:29:55;;;;;;;14.93;7.25;;;;;;;23.67;64.94;97526.87;129420;1096;114297;-82
2021/08/01 06:32:21;;;;;;;12.55;7.53;;;;;;;23.71;65.14;97533.08;129484;1096;114190;-82
2021/08/01 06:34:47;;;;;;;12.05;8.33;;;;;;;23.69;64.77;97538.20;129616;1096;22526;-81
2021/08/01 06:37:13;;;;;;;15.05;8.70;;;;;;;23.63;64.51;97517.88;129429;1096;113877;-82
2021/08/01 06:39:43;;;;;;;12.35;7.88;;;;;;;23.53;64.65;97539.59;129447;1096;114094;-83
2021/08/01 06:42:09;;;;;;;14.45;8.63;;;;;;;23.43;64.82;97546.04;129411;1097;114387;-83
2021/08/01 06:44:35;;;;;;;13.13;8.00;;;;;;;23.37;65.03;97555.15;129478;1096;114361;-82
2021/08/01 06:47:01;;;;;;;11.40;8.10;;;;;;;23.27;64.95;97557.64;129555;1096;22513;-82
2021/08/01 06:49:27;;;;;;;12.63;8.78;;;;;;;23.21;65.18;97558.51;129465;1096;114072;-83
2021/08/01 06:51:53;;;;;;;18.10;8.73;;;;;;;23.18;65.96;97551.09;129554;1096;114255;-82
2021/08/01 06:54:19;;;;;;;13.00;8.65;;;;;;;23.18;65.73;97567.56;129493;1096;114302;-83
2021/08/01 06:56:46;;;;;;;13.83;7.50;;;;;;;23.19;65.90;97571.89;129467;1096;114650;-83
2021/08/01 06:59:13;;;;;;;12.13;8.98;;;;;;;23.20;65.95;97571.47;129573;1096;23535;-83
2021/08/01 07:01:39;;;;;;;14.10;9.33;;;;;;;23.22;65.84;97573.79;129541;1096;113706;-84
2021/08/01 07:04:06;;;;;;;14.55;9.30;;;;;;;23.23;65.84;97576.14;129450;1096;114156;-86
2021/08/01 07:06:32;;;;;;;12.63;9.35;;;;;;;23.24;65.92;97577.69;129457;1096;114305;-83
2021/08/01 07:08:58;;;;;;;12.85;9.55;;;;;;;23.26;66.04;97591.00;129526;1096;114281;-86
2021/08/01 07:11:24;;;;;;;15.45;9.73;;;;;;;23.25;66.04;97606.70;129443;1096;114370;-82
2021/08/01 07:13:50;;;;;;;14.15;9.50;;;;;;;23.23;65.86;97595.37;129664;1096;23313;-82
2021/08/01 07:16:16;;;;;;;14.15;9.30;;;;;;;23.21;66.09;97589.50;129418;1096;113939;-81
2021/08/01 07:18:43;;;;;;;14.73;9.23;;;;;;;23.23;66.17;97600.09;129506;1095;114143;-83
2021/08/01 07:21:09;;;;;;;13.75;9.38;;;;;;;23.24;66.33;97640.09;129453;1096;114507;-82
2021/08/01 07:23:35;;;;;;;18.75;9.68;;;;;;;23.22;66.10;97664.42;129444;1096;113763;-81
2021/08/01 07:26:01;;;;;;;15.90;10.08;;;;;;;23.16;66.14;97609.19;129572;1097;22605;-83
2021/08/01 07:28:27;;;;;;;15.03;10.40;;;;;;;23.16;65.99;97650.38;129545;1096;114294;-82
2021/08/01 07:30:53;;;;;;;16.43;10.45;;;;;;;23.13;65.97;97689.64;129409;1096;114270;-79
2021/08/01 07:33:20;;;;;;;15.50;9.70;;;;;;;23.09;66.39;97644.19;129420;1097;114664;-80
2021/08/01 07:35:46;;;;;;;13.98;10.53;;;;;;;23.07;66.24;97594.38;129458;1096;114749;-83
2021/08/01 07:38:12;;;;;;;16.30;10.90;;;;;;;23.03;66.44;97534.82;129531;1097;22525;-83
2021/08/01 07:40:38;;;;;;;14.08;10.48;;;;;;;23.03;66.68;97536.80;129451;1097;114216;-82
2021/08/01 07:43:04;;;;;;;16.83;10.33;;;;;;;23.05;67.06;97567.34;129439;1096;114690;-82
2021/08/01 07:45:34;;;;;;;12.20;9.53;;;;;;;23.06;67.31;97590.86;129526;1096;114330;-82
2021/08/01 07:48:01;;;;;;;15.05;11.40;;;;;;;23.05;67.66;97610.50;129507;1096;114304;-82
2021/08/01 07:50:28;;;;;;;15.65;10.70;;;;;;;23.07;67.79;97611.66;129442;1097;114661;-82
2021/08/01 07:52:54;;;;;;;16.28;12.35;;;;;;;23.18;68.01;97634.25;129564;1096;23000;-82
2021/08/01 07:55:20;;;;;;;16.13;11.95;;;;;;;23.30;67.88;97619.20;129482;1097;114326;-82
2021/08/01 07:57:46;;;;;;;16.05;12.10;;;;;;;23.42;67.85;97587.64;129473;1096;114553;-82
2021/08/01 08:00:14;;;;;;;18.08;11.75;;;;;;;23.58;68.04;97582.34;129437;1096;114439;-82
2021/08/01 08:02:41;;;;;;;18.50;12.13;;;;;;;23.71;67.93;97599.05;129475;1096;114430;-82
2021/08/01 08:05:07;;;;;;;15.38;10.63;;;;;;;23.87;67.34;97601.95;129575;1096;22525;-82
2021/08/01 08:07:33;;;;;;;14.53;11.88;;;;;;;24.05;67.33;97595.38;129442;1096;113973;-82
2021/08/01 08:09:59;;;;;;;15.60;11.33;;;;;;;24.16;67.17;97577.50;129478;1096;114532;-81
2021/08/01 08:12:25;;;;;;;15.88;11.28;;;;;;;24.32;67.11;97567.80;129536;1096;114373;-81
2021/08/01 08:14:51;;;;;;;16.75;12.23;;;;;;;24.48;66.89;97565.17;129440;1095;114686;-81
2021/08/01 08:17:18;;;;;;;15.55;11.45;;;;;;;24.63;66.64;97574.72;129456;1096;114406;-81
2021/08/01 08:19:44;;;;;;;15.70;11.53;;;;;;;24.80;66.25;97569.28;129541;1096;22627;-81
2021/08/01 08:22:11;;;;;;;16.83;13.28;;;;;;;24.96;66.05;97575.66;129457;1096;114297;-81
2021/08/01 08:24:37;;;;;;;15.15;12.08;;;;;;;24.98;66.13;97561.45;129469;1096;114313;-81
2021/08/01 08:27:04;;;;;;;18.03;13.88;;;;;;;24.94;65.67;97564.27;129427;1096;114264;-81
2021/08/01 08:29:30;;;;;;;24.95;13.63;;;;;;;24.94;65.39;97524.95;129444;1096;114399;-81
2021/08/01 08:31:58;;;;;;;17.95;13.48;;;;;;;24.89;64.96;97490.42;129537;1096;22512;-81
2021/08/01 08:34:25;;;;;;;16.90;13.53;;;;;;;24.90;64.81;97453.42;129456;1096;114180;-81
2021/08/01 08:36:52;;;;;;;17.65;12.78;;;;;;;24.84;64.82;97454.38;129449;1096;114518;-81
2021/08/01 08:39:21;;;;;;;18.28;13.55;;;;;;;24.77;64.69;97452.53;129440;1096;114460;-81
2021/08/01 08:41:48;;;;;;;18.73;14.50;;;;;;;24.79;64.99;97458.38;129431;1096;114479;-82
2021/08/01 08:44:14;;;;;;;16.95;13.30;;;;;;;24.85;65.05;97467.70;129536;1097;22548;-82
2021/08/01 08:46:41;;;;;;;15.78;12.28;;;;;;;24.95;65.29;97469.43;129444;1096;113913;-82
2021/08/01 08:49:12;;;;;;;17.05;13.43;;;;;;;25.07;65.13;97476.25;129454;1097;114296;-82
2021/08/01 08:51:40;;;;;;;18.25;12.23;;;;;;;25.20;65.36;97459.88;129541;1096;114281;-82
2021/08/01 08:54:13;;;;;;;16.30;13.15;;;;;;;25.35;65.32;97460.30;129448;1096;114569;-82
2021/08/01 08:56:40;;;;;;;19.83;14.78;;;;;;;25.46;64.99;97436.78;129495;1096;114549;-82
2021/08/01 08:59:06;;;;;;;21.38;14.63;;;;;;;25.56;64.90;97436.97;129543;1096;23327;-82
2021/08/01 09:01:36;;;;;;;19.68;13.35;;;;;;;25.65;64.98;97429.63;129463;1096;114138;-82
2021/08/01 09:04:02;;;;;;;17.20;13.23;;;;;;;25.77;64.45;97435.65;129471;1097;114315;-82
2021/08/01 09:06:30;;;;;;;23.28;13.20;;;;;;;25.86;64.25;97438.58;129470;1096;114541;-83
2021/08/01 09:08:56;;;;;;;15.90;12.10;;;;;;;25.96;63.99;97445.81;129475;1097;114472;-83
2021/08/01 09:11:22;;;;;;;15.95;13.18;;;;;;;26.06;63.61;97453.04;129478;1096;114364;-83
2021/08/01 09:13:50;;;;;;;20.73;13.68;;;;;;;26.19;63.51;97439.28;129528;1097;22614;-82
2021/08/01 09:16:19;;;;;;;16.50;13.08;;;;;;;26.34;62.99;97436.91;129435;1096;114165;-82
2021/08/01 09:18:46;;;;;;;16.55;13.08;;;;;;;26.44;63.05;97413.73;129478;1096;114320;-83
2021/08/01 09:21:30;;;;;;;16.58;12.60;;;;;;;26.59;62.33;97422.41;129481;1096;114539;-83
2021/08/01 09:23:56;;;;;;;17.85;14.70;;;;;;;26.76;62.07;97417.56;129467;1096;114623;-83
2021/08/01 09:26:22;;;;;;;19.88;15.98;;;;;;;26.90;61.43;97417.14;129488;1096;114478;-85
2021/08/01 09:29:02;;;;;;;24.98;17.85;;;;;;;27.04;61.18;97432.48;129599;1096;23269;-85
2021/08/01 09:31:29;;;;;;;16.83;12.37;;;;;;;27.18;60.71;97426.55;129490;1096;114202;-86
2021/08/01 09:33:55;;;;;;;18.00;12.05;;;;;;;27.32;60.20;97420.58;129456;1096;114944;-85
2021/08/01 09:36:24;;;;;;;14.95;11.58;;;;;;;27.48;59.95;97436.26;129471;1096;114640;-85
2021/08/01 09:38:54;;;;;;;16.63;11.65;;;;;;;27.63;59.27;97429.04;129486;1096;114461;-85
2021/08/01 09:41:32;;;;;;;13.13;10.57;;;;;;;27.72;57.48;97438.64;129498;1096;114351;-85
2021/08/01 09:44:02;;;;;;;13.63;10.65;;;;;;;27.85;57.52;97425.56;129640;1096;22564;-85
2021/08/01 09:47:07;;;;;;;13.57;9.60;;;;;;;28.02;56.30;97431.69;129505;1096;114350;-85
2021/08/01 09:49:33;;;;;;;11.63;9.48;;;;;;;28.22;56.80;97439.69;129501;1096;114951;-85
2021/08/01 09:52:02;;;;;;;12.38;9.90;;;;;;;28.32;55.95;97453.15;129498;1096;114289;-83
2021/08/01 09:54:46;;;;;;;12.15;9.85;;;;;;;28.47;55.02;97450.67;129484;1096;114535;-84
2021/08/01 09:57:22;;;;;;;15.58;10.63;;;;;;;28.57;55.05;97455.05;129499;1096;113383;-83
2021/08/01 10:00:10;;;;;;;13.50;10.15;;;;;;;28.65;55.17;97446.45;129437;1096;114471;-84
2021/08/01 10:02:40;;;;;;;12.58;10.48;;;;;;;28.85;54.88;97444.13;129490;1096;114515;-84
2021/08/01 10:05:38;;;;;;;12.35;9.68;;;;;;;28.93;54.72;97450.17;129590;1097;24566;-84
2021/08/01 10:08:04;;;;;;;13.15;10.38;;;;;;;28.95;54.28;97447.70;129460;1096;22545;-85
2021/08/01 10:10:35;;;;;;;14.60;10.03;;;;;;;28.91;53.11;97442.30;129452;1096;114297;-87
2021/08/01 10:13:01;;;;;;;15.00;10.43;;;;;;;28.86;52.55;97442.89;129446;1096;114534;-84
2021/08/01 10:15:27;;;;;;;14.38;9.60;;;;;;;28.80;52.42;97430.84;129438;1096;114471;-84
2021/08/01 10:17:54;;;;;;;13.18;10.08;;;;;;;28.73;52.69;97423.59;129458;1096;114267;-84
2021/08/01 10:20:20;;;;;;;14.43;9.98;;;;;;;28.76;53.47;97416.36;129446;1096;114440;-85
2021/08/01 10:22:47;;;;;;;13.35;9.68;;;;;;;28.80;53.25;97395.59;129581;1096;22511;-84
2021/08/01 10:25:27;;;;;;;18.43;10.75;;;;;;;29.00;53.01;97398.01;129451;1097;113972;-84
2021/08/01 10:27:57;;;;;;;15.08;10.80;;;;;;;29.20;52.51;97378.23;129459;1096;114534;-84
2021/08/01 10:30:27;;;;;;;14.23;10.68;;;;;;;29.39;52.62;97378.25;129488;1095;114460;-83
2021/08/01 10:33:06;;;;;;;13.03;9.95;;;;;;;29.59;51.51;97392.48;129467;1096;114595;-84
2021/08/01 10:35:37;;;;;;;14.28;10.43;;;;;;;29.73;51.05;97382.79;129492;1096;114380;-83
2021/08/01 10:38:04;;;;;;;10.95;9.48;;;;;;;29.91;50.84;97385.58;129556;1097;22689;-84
2021/08/01 10:40:34;;;;;;;14.15;10.28;;;;;;;30.03;50.40;97375.55;129481;1096;113960;-84
2021/08/01 10:43:05;;;;;;;13.10;9.28;;;;;;;30.14;49.53;97373.04;129556;1096;114662;-84
2021/08/01 10:45:32;;;;;;;11.25;9.33;;;;;;;30.17;48.61;97365.83;129402;1096;115218;-84
2021/08/01 10:47:59;;;;;;;14.45;9.35;;;;;;;30.23;49.66;97359.19;129402;1096;114525;-85
2021/08/01 10:50:28;;;;;;;11.80;9.10;;;;;;;30.41;49.74;97358.36;129413;1095;114195;-85
2021/08/01 10:53:19;;;;;;;13.00;9.35;;;;;;;30.59;48.51;97356.78;129544;1097;22582;-85
2021/08/01 10:55:49;;;;;;;16.65;9.53;;;;;;;30.73;46.90;97344.97;129593;1096;23762;-86
2021/08/01 10:58:17;;;;;;;15.60;9.88;;;;;;;30.77;47.37;97340.05;129454;1097;114596;-85
2021/08/01 11:00:55;;;;;;;14.93;10.00;;;;;;;30.88;47.87;97345.86;129364;1095;114324;-85
2021/08/01 11:03:22;;;;;;;11.10;9.18;;;;;;;31.00;46.99;97336.53;129430;1096;114296;-86
2021/08/01 11:05:49;;;;;;;12.08;9.73;;;;;;;31.19;47.31;97328.84;129414;1096;114475;-86
2021/08/01 11:08:15;;;;;;;17.90;10.15;;;;;;;31.33;45.99;97343.34;129537;1096;22524;-84
2021/08/01 11:10:43;;;;;;;9.63;8.30;;;;;;;31.38;44.51;97346.22;129470;1096;114103;-85
2021/08/01 11:13:30;;;;;;;10.93;8.00;;;;;;;31.48;43.84;97353.27;129449;1096;114170;-86
2021/08/01 11:15:57;;;;;;;13.18;10.38;;;;;;;31.50;44.43;97334.08;129533;1095;114615;-86